Time;durP1;ratioP1;P1;durP2;ratioP2;P2;SDS_P1;SDS_P2;PMS_P1;PMS_P2;Temp;Humidity;BMP_temperature;BMP_pressure;BME280_temperature;BME280_humidity;BME280_pressure;Samples;Min_cycle;Max_cycle;Signal;HPM_P1;HPM_P2
2022/01/24 00:00:17;;;;;;;2.67;1.00;;;6.20;99.90;;;;;;5132194;27;20034;-69
2022/01/24 00:02:44;;;;;;;2.70;1.80;;;6.20;99.90;;;;;;5121248;27;20019;-69
2022/01/24 00:05:11;;;;;;;3.20;1.48;;;6.30;99.90;;;;;;5123260;27;20053;-69
2022/01/24 00:07:37;;;;;;;4.28;1.40;;;6.30;99.90;;;;;;5121361;27;20071;-71
2022/01/24 00:10:08;;;;;;;3.50;1.55;;;6.20;99.90;;;;;;5121221;27;20070;-67
2022/01/24 00:17:48;;;;;;;2.22;0.50;;;6.30;99.90;;;;;;5135862;27;20030;-75
2022/01/24 00:28:08;;;;;;;0.88;0.50;;;6.40;99.90;;;;;;5138193;27;20034;-69
2022/01/24 00:30:34;;;;;;;0.30;0.22;;;6.50;99.90;;;;;;5136729;27;20023;-71
2022/01/24 00:33:00;;;;;;;0.68;0.50;;;6.40;99.90;;;;;;5137597;27;20027;-73
2022/01/24 00:35:25;;;;;;;1.10;0.70;;;6.30;99.90;;;;;;5137409;27;20038;-73
2022/01/24 00:37:51;;;;;;;1.05;0.30;;;6.20;99.90;;;;;;5138075;27;20167;-70
2022/01/24 00:40:17;;;;;;;0.88;0.50;;;6.20;99.90;;;;;;5136530;27;20054;-69
2022/01/24 00:42:56;;;;;;;0.75;0.60;;;6.30;99.90;;;;;;5138488;27;20034;-73
2022/01/24 00:45:41;;;;;;;1.10;0.55;;;6.30;99.90;;;;;;5137424;27;20015;-72
2022/01/24 00:48:28;;;;;;;2.72;0.90;;;6.20;99.90;;;;;;5138091;27;20022;-72
2022/01/24 00:56:20;;;;;;;0.90;0.50;;;6.20;99.90;;;;;;5136095;27;20065;-69
2022/01/24 00:58:46;;;;;;;0.55;0.35;;;6.30;99.90;;;;;;5134160;27;20027;-69
2022/01/24 01:01:12;;;;;;;0.88;0.40;;;6.20;99.90;;;;;;5136886;27;20046;-71
2022/01/24 01:03:37;;;;;;;1.42;0.70;;;6.30;99.90;;;;;;5134826;27;20043;-67
2022/01/24 01:06:07;;;;;;;2.03;0.73;;;6.10;99.90;;;;;;5134818;27;20525;-71
2022/01/24 01:19:39;;;;;;;0.73;0.55;;;6.20;99.90;;;;;;5116094;28;20031;-72
2022/01/24 01:22:05;;;;;;;0.95;0.50;;;6.20;99.90;;;;;;5115911;28;20031;-70
2022/01/24 01:24:36;;;;;;;0.63;0.32;;;6.10;99.90;;;;;;5113580;28;20058;-71
2022/01/24 01:27:07;;;;;;;1.95;0.47;;;6.20;99.90;;;;;;5115160;28;20417;-68
2022/01/24 01:29:47;;;;;;;1.65;0.40;;;6.30;99.90;;;;;;5113069;28;20032;-76
2022/01/24 01:35:17;;;;;;;0.30;0.28;;;6.40;99.90;;;;;;5099449;28;20122;-70
2022/01/24 01:52:18;;;;;;;0.25;0.25;;;6.30;99.90;;;;;;5112763;28;20043;-68
2022/01/24 01:55:07;;;;;;;1.23;0.50;;;6.20;99.90;;;;;;5112597;28;20053;-74
2022/01/24 01:57:15;;;;;;;0.45;0.30;;;6.20;99.90;;;;;;5109413;28;20055;-69
2022/01/24 01:59:41;;;;;;;0.60;0.32;;;6.00;99.90;;;;;;5111894;28;20453;-77
2022/01/24 02:02:07;;;;;;;0.65;0.47;;;6.10;99.90;;;;;;5112858;28;20064;-72
2022/01/24 02:04:32;;;;;;;0.68;0.25;;;6.10;99.90;;;;;;5114453;28;20027;-70
2022/01/24 02:06:58;;;;;;;1.33;0.75;;;6.00;99.90;;;;;;5114886;28;20064;-72
2022/01/24 02:09:32;;;;;;;0.30;0.20;;;6.10;99.90;;;;;;5112816;28;20024;-70
2022/01/24 02:11:58;;;;;;;0.47;0.20;;;6.30;99.90;;;;;;5113755;28;20024;-70
2022/01/24 02:14:31;;;;;;;0.73;0.20;;;6.40;99.90;;;;;;5113124;28;20048;-71
2022/01/24 02:17:06;;;;;;;0.88;0.40;;;6.50;99.90;;;;;;5113831;28;20024;-74
2022/01/24 02:25:01;;;;;;;1.95;0.57;;;6.10;99.90;;;;;;5066563;28;1364033;-71
2022/01/24 02:27:40;;;;;;;3.13;0.55;;;6.10;99.90;;;;;;5112566;28;20035;-70
2022/01/24 02:32:51;;;;;;;0.93;0.50;;;6.10;99.90;;;;;;5114790;28;20037;-70
2022/01/24 02:35:17;;;;;;;0.70;0.40;;;6.20;99.90;;;;;;5113027;28;20416;-70
2022/01/24 02:37:42;;;;;;;0.60;0.45;;;6.20;99.90;;;;;;5112077;28;20036;-69
2022/01/24 02:40:15;;;;;;;0.65;0.43;;;6.10;99.90;;;;;;5113629;28;20039;-70
2022/01/24 02:48:26;;;;;;;0.57;0.50;;;6.20;99.90;;;;;;5113608;28;20088;-69
2022/01/24 02:51:25;;;;;;;3.78;1.00;;;6.20;99.90;;;;;;5113810;28;20028;-68
2022/01/24 02:53:51;;;;;;;1.08;0.60;;;6.10;99.90;;;;;;5113866;28;20042;-68
2022/01/24 02:56:17;;;;;;;1.00;0.73;;;6.00;99.90;;;;;;5113899;28;20032;-68
2022/01/24 02:58:43;;;;;;;1.70;0.80;;;5.90;99.90;;;;;;5113041;28;20094;-70
2022/01/24 03:01:09;;;;;;;1.00;0.63;;;5.90;99.90;;;;;;5113238;28;20035;-68
2022/01/24 03:03:36;;;;;;;1.80;0.80;;;5.90;99.90;;;;;;5112262;28;20039;-65
2022/01/24 03:06:03;;;;;;;0.85;0.50;;;5.90;99.90;;;;;;5114479;28;20370;-70
2022/01/24 03:08:28;;;;;;;0.60;0.52;;;5.90;99.90;;;;;;5112128;28;20346;-69
2022/01/24 03:10:54;;;;;;;0.50;0.40;;;6.10;99.90;;;;;;5113853;28;20030;-69
2022/01/24 03:13:41;;;;;;;0.40;0.30;;;6.00;99.90;;;;;;5113327;28;20028;-72
2022/01/24 03:16:08;;;;;;;2.13;0.40;;;5.90;99.90;;;;;;5112960;28;20039;-69
2022/01/24 03:18:34;;;;;;;1.48;0.60;;;5.90;99.90;;;;;;5113756;28;20015;-69
2022/01/24 03:21:01;;;;;;;0.80;0.60;;;5.80;99.90;;;;;;5113820;28;20036;-69
2022/01/24 03:23:27;;;;;;;0.40;0.25;;;5.80;99.90;;;;;;5118559;28;20129;-69
2022/01/24 03:25:53;;;;;;;1.45;0.82;;;5.80;99.90;;;;;;5118631;28;20048;-71
2022/01/24 03:28:19;;;;;;;0.70;0.40;;;5.70;99.90;;;;;;5118485;28;20457;-69
2022/01/24 03:30:46;;;;;;;0.38;0.20;;;5.90;99.90;;;;;;5120420;28;20032;-70
2022/01/24 03:33:12;;;;;;;0.55;0.40;;;5.80;99.90;;;;;;5118480;28;20039;-68
2022/01/24 03:35:40;;;;;;;0.50;0.47;;;5.80;99.90;;;;;;5117908;27;20157;-70
2022/01/24 03:38:06;;;;;;;0.43;0.43;;;5.80;99.90;;;;;;5115383;28;20028;-70
2022/01/24 03:40:32;;;;;;;0.30;0.20;;;5.80;99.90;;;;;;5116354;28;20385;-70
2022/01/24 03:42:58;;;;;;;0.88;0.28;;;5.80;99.90;;;;;;5117334;28;20034;-71
2022/01/24 03:45:36;;;;;;;0.77;0.52;;;5.90;99.90;;;;;;5116889;28;20020;-68
2022/01/24 03:48:26;;;;;;;2.08;0.40;;;6.10;99.90;;;;;;5115561;28;20024;-69
2022/01/24 03:50:53;;;;;;;1.17;0.38;;;5.80;99.90;;;;;;5115743;28;20421;-70
2022/01/24 03:53:19;;;;;;;1.95;0.75;;;5.70;99.90;;;;;;5116065;28;20031;-69
2022/01/24 03:55:45;;;;;;;0.75;0.40;;;5.70;99.90;;;;;;5115313;28;20020;-69
2022/01/24 03:58:11;;;;;;;0.88;0.20;;;5.80;99.90;;;;;;5115919;28;20114;-67
2022/01/24 04:00:36;;;;;;;2.90;0.98;;;5.80;99.90;;;;;;5113775;28;20027;-70
2022/01/24 04:03:02;;;;;;;0.85;0.38;;;5.80;99.90;;;;;;5115817;28;20031;-70
2022/01/24 04:05:28;;;;;;;0.30;0.20;;;5.80;99.90;;;;;;5115360;28;20059;-69
2022/01/24 04:07:53;;;;;;;2.47;1.38;;;5.80;99.90;;;;;;5114863;28;20032;-70
2022/01/24 04:10:21;;;;;;;0.60;0.30;;;5.80;99.90;;;;;;5114956;27;20072;-69
2022/01/24 04:12:49;;;;;;;1.92;0.47;;;5.80;99.90;;;;;;5113889;28;20031;-68
2022/01/24 04:15:43;;;;;;;1.52;1.05;;;5.80;99.90;;;;;;5116739;28;20032;-69
2022/01/24 04:18:26;;;;;;;1.52;0.40;;;5.70;99.90;;;;;;5115678;28;20019;-68
2022/01/24 04:23:39;;;;;;;0.80;0.40;;;5.80;99.90;;;;;;5117922;28;20165;-73
2022/01/24 04:26:05;;;;;;;3.92;0.32;;;5.80;99.90;;;;;;5116817;28;20039;-70
2022/01/24 04:28:31;;;;;;;2.80;0.50;;;5.90;99.90;;;;;;5114955;28;20484;-70
2022/01/24 04:30:56;;;;;;;0.88;0.35;;;5.80;99.90;;;;;;5116005;28;20024;-69
2022/01/24 04:33:22;;;;;;;1.33;0.43;;;5.90;99.90;;;;;;5115773;28;20027;-70
2022/01/24 04:35:48;;;;;;;0.82;0.70;;;5.90;99.90;;;;;;5115932;28;20464;-69
2022/01/24 04:38:13;;;;;;;0.75;0.22;;;6.00;99.90;;;;;;5114150;28;20114;-70
2022/01/24 04:40:40;;;;;;;0.80;0.50;;;6.00;99.90;;;;;;5113024;28;20055;-68
2022/01/24 04:43:29;;;;;;;2.80;0.65;;;5.70;99.90;;;;;;5114483;28;20461;-68
2022/01/24 04:46:47;;;;;;;0.90;0.38;;;5.80;99.90;;;;;;5114107;28;20027;-72
2022/01/24 04:56:31;;;;;;;0.93;0.40;;;5.80;99.90;;;;;;5114608;28;20114;-67
2022/01/24 04:58:56;;;;;;;0.65;0.52;;;5.90;99.90;;;;;;5114361;28;20085;-68
2022/01/24 05:01:23;;;;;;;2.28;0.60;;;6.00;99.90;;;;;;5113975;28;20096;-69
2022/01/24 05:03:48;;;;;;;1.60;0.52;;;6.00;99.90;;;;;;5112434;28;20059;-68
2022/01/24 05:06:14;;;;;;;1.35;0.60;;;5.90;99.90;;;;;;5113979;28;20039;-70
2022/01/24 05:08:40;;;;;;;0.70;0.50;;;5.90;99.90;;;;;;5113496;28;20028;-69
2022/01/24 05:11:10;;;;;;;0.40;0.30;;;5.80;99.90;;;;;;5112932;28;20035;-67
2022/01/24 05:24:25;;;;;;;0.65;0.50;;;5.70;99.90;;;;;;5114606;28;20047;-69
2022/01/24 05:26:51;;;;;;;1.10;0.47;;;5.70;99.90;;;;;;5114315;28;20034;-68
2022/01/24 05:29:17;;;;;;;2.83;0.73;;;5.70;99.90;;;;;;5113135;28;20028;-68
2022/01/24 05:31:43;;;;;;;0.82;0.80;;;5.60;99.90;;;;;;5112015;28;20028;-69
2022/01/24 05:34:09;;;;;;;1.50;0.65;;;5.70;99.90;;;;;;5112511;28;20028;-68
2022/01/24 05:36:34;;;;;;;1.77;1.00;;;5.60;99.90;;;;;;5114024;28;20461;-67
2022/01/24 05:39:00;;;;;;;1.13;0.80;;;5.90;99.90;;;;;;5113084;28;20102;-67
2022/01/24 05:41:27;;;;;;;2.13;0.63;;;5.90;99.90;;;;;;5113275;28;20548;-68
2022/01/24 05:43:53;;;;;;;2.47;0.88;;;6.00;99.90;;;;;;5111824;28;20019;-67
2022/01/24 05:46:18;;;;;;;1.77;1.00;;;5.90;99.90;;;;;;5112034;28;20507;-68
2022/01/24 05:48:44;;;;;;;0.85;0.73;;;5.80;99.90;;;;;;5112697;28;20119;-68
2022/01/24 05:51:10;;;;;;;2.60;1.00;;;5.70;99.90;;;;;;5114346;28;20031;-67
2022/01/24 05:53:35;;;;;;;2.80;1.00;;;5.90;99.90;;;;;;5114429;28;20028;-69
2022/01/24 05:56:01;;;;;;;0.90;0.73;;;6.10;99.90;;;;;;5112621;28;20059;-69
2022/01/24 05:58:27;;;;;;;1.15;0.88;;;6.10;99.90;;;;;;5114409;28;20028;-68
2022/01/24 06:00:53;;;;;;;0.52;0.50;;;5.90;99.90;;;;;;5113923;28;20031;-69
2022/01/24 06:03:19;;;;;;;2.13;0.95;;;5.90;99.90;;;;;;5114039;28;20027;-70
2022/01/24 06:05:44;;;;;;;1.35;0.73;;;5.80;99.90;;;;;;5112998;28;20055;-68
2022/01/24 06:08:10;;;;;;;0.95;0.60;;;5.80;99.90;;;;;;5112604;28;20448;-70
2022/01/24 06:10:39;;;;;;;0.70;0.68;;;5.80;99.90;;;;;;5113135;28;20031;-70
2022/01/24 06:13:08;;;;;;;1.55;0.77;;;5.80;99.90;;;;;;5113302;28;20019;-69
2022/01/24 06:15:34;;;;;;;2.97;0.98;;;6.00;99.90;;;;;;5112638;28;20032;-70
2022/01/24 06:18:00;;;;;;;3.33;0.85;;;5.80;99.90;;;;;;5112491;28;20039;-68
2022/01/24 06:20:25;;;;;;;1.77;0.82;;;5.90;99.90;;;;;;5111307;28;20032;-69
2022/01/24 06:22:51;;;;;;;4.82;1.20;;;5.80;99.90;;;;;;5112429;28;20110;-72
2022/01/24 06:25:22;;;;;;;7.35;1.23;;;5.90;99.90;;;;;;5111374;28;20418;-69
2022/01/24 06:27:48;;;;;;;4.18;1.13;;;6.10;99.90;;;;;;5112524;28;20023;-67
2022/01/24 06:30:14;;;;;;;2.22;0.95;;;6.10;99.90;;;;;;5111427;28;20126;-69
2022/01/24 06:32:40;;;;;;;8.25;1.05;;;6.20;99.90;;;;;;5110551;28;20028;-69
2022/01/24 06:35:07;;;;;;;1.42;1.08;;;6.20;99.90;;;;;;5113129;28;20442;-69
2022/01/24 06:37:33;;;;;;;1.45;1.00;;;6.30;99.90;;;;;;5113236;28;20107;-68
2022/01/24 06:39:59;;;;;;;2.38;1.10;;;6.40;99.90;;;;;;5113356;28;20760;-71
2022/01/24 06:42:24;;;;;;;1.75;1.27;;;6.40;99.90;;;;;;5114557;28;20051;-68
2022/01/24 06:44:53;;;;;;;1.13;1.00;;;6.40;99.90;;;;;;5113066;28;20028;-70
2022/01/24 06:47:21;;;;;;;1.38;1.00;;;6.30;99.90;;;;;;5113683;28;20031;-73
2022/01/24 06:49:47;;;;;;;1.48;0.77;;;6.20;99.90;;;;;;5112221;28;20028;-69
2022/01/24 06:52:15;;;;;;;1.60;0.80;;;6.10;99.90;;;;;;5112780;28;20530;-69
2022/01/24 06:54:43;;;;;;;3.53;0.90;;;5.90;99.90;;;;;;5112690;28;20028;-70
2022/01/24 06:57:11;;;;;;;0.90;0.65;;;6.00;99.90;;;;;;5114801;28;20023;-71
2022/01/24 06:59:42;;;;;;;1.58;1.13;;;5.80;99.90;;;;;;5118466;28;20020;-70
2022/01/24 07:02:09;;;;;;;2.90;0.82;;;5.90;99.90;;;;;;5118432;28;20060;-68
2022/01/24 07:04:37;;;;;;;5.50;1.10;;;6.00;99.90;;;;;;5116292;28;20024;-68
2022/01/24 07:07:04;;;;;;;9.18;1.52;;;6.00;99.90;;;;;;5116758;28;20473;-68
2022/01/24 07:09:30;;;;;;;4.70;1.55;;;6.10;99.90;;;;;;5116976;28;20030;-69
2022/01/24 07:11:56;;;;;;;3.35;1.10;;;6.20;99.90;;;;;;5116557;28;20036;-72
2022/01/24 07:14:21;;;;;;;3.72;1.10;;;6.10;99.90;;;;;;5117268;28;20026;-71
2022/01/24 07:19:23;;;;;;;4.25;1.08;;;6.10;99.90;;;;;;5117536;28;20036;-70
2022/01/24 07:21:49;;;;;;;4.18;1.20;;;6.10;99.90;;;;;;5116260;28;20175;-67
2022/01/24 07:24:15;;;;;;;2.13;1.33;;;6.10;99.90;;;;;;5115374;28;20512;-68
2022/01/24 07:26:41;;;;;;;2.08;1.30;;;6.00;99.90;;;;;;5117243;28;20028;-70
2022/01/24 07:29:06;;;;;;;2.92;1.45;;;6.10;99.90;;;;;;5117076;28;20106;-70
2022/01/24 07:31:32;;;;;;;4.75;1.67;;;6.00;99.90;;;;;;5118156;28;20027;-70
2022/01/24 07:33:58;;;;;;;1.63;1.20;;;5.90;99.90;;;;;;5116796;28;20031;-72
2022/01/24 07:36:25;;;;;;;2.35;1.05;;;5.80;99.90;;;;;;5115666;28;20400;-70
2022/01/24 07:38:51;;;;;;;3.10;0.80;;;5.90;99.90;;;;;;5114592;28;20080;-70
2022/01/24 07:41:23;;;;;;;5.03;0.93;;;5.80;99.90;;;;;;5116262;28;20032;-74
2022/01/24 07:43:50;;;;;;;3.30;1.27;;;6.00;99.90;;;;;;5115649;28;20402;-68
2022/01/24 07:46:17;;;;;;;1.63;1.10;;;6.10;99.90;;;;;;5114258;28;20084;-69
2022/01/24 07:48:43;;;;;;;1.02;0.93;;;6.00;99.90;;;;;;5115261;28;20035;-68
2022/01/24 07:51:09;;;;;;;4.10;1.58;;;6.00;99.90;;;;;;5114344;28;20039;-67
2022/01/24 07:53:35;;;;;;;4.82;0.98;;;6.00;99.90;;;;;;5114330;28;20063;-68
2022/01/24 07:56:01;;;;;;;1.95;0.95;;;5.80;99.90;;;;;;5114860;28;20051;-70
2022/01/24 07:58:28;;;;;;;2.05;0.68;;;5.70;99.90;;;;;;5113788;28;20100;-68
2022/01/24 08:00:56;;;;;;;1.80;1.20;;;5.80;99.90;;;;;;5113414;28;20036;-71
2022/01/24 08:03:22;;;;;;;1.60;1.05;;;5.80;99.90;;;;;;5115573;28;20031;-69
2022/01/24 08:05:48;;;;;;;2.90;1.05;;;5.80;99.90;;;;;;5115112;28;20037;-69
2022/01/24 08:08:13;;;;;;;1.92;1.15;;;5.70;99.90;;;;;;5114067;28;20062;-68
2022/01/24 08:10:39;;;;;;;4.20;0.90;;;5.70;99.90;;;;;;5115236;28;20035;-71
2022/01/24 08:13:05;;;;;;;2.10;1.17;;;5.90;99.90;;;;;;5114707;28;20024;-68
2022/01/24 08:15:30;;;;;;;1.23;0.90;;;6.00;99.90;;;;;;5114517;28;20031;-68
2022/01/24 08:17:56;;;;;;;2.90;0.90;;;5.90;99.90;;;;;;5114746;28;20099;-68
2022/01/24 08:20:22;;;;;;;2.70;1.33;;;5.80;99.90;;;;;;5113387;28;20038;-65
2022/01/24 08:22:49;;;;;;;4.70;1.10;;;6.00;99.90;;;;;;5112581;28;20059;-68
2022/01/24 08:25:15;;;;;;;5.18;1.25;;;6.40;99.90;;;;;;5114601;28;20070;-73
2022/01/24 08:27:44;;;;;;;1.80;0.75;;;6.10;99.90;;;;;;5113343;28;20030;-69
2022/01/24 08:30:16;;;;;;;1.17;0.88;;;5.90;99.90;;;;;;5112685;28;20122;-70
2022/01/24 08:32:42;;;;;;;4.25;1.27;;;5.80;99.90;;;;;;5113423;28;20035;-68
2022/01/24 08:35:09;;;;;;;4.97;1.23;;;5.80;99.90;;;;;;5114080;28;20475;-69
2022/01/24 08:37:35;;;;;;;2.35;1.50;;;5.80;99.90;;;;;;5114809;28;20024;-70
2022/01/24 08:40:02;;;;;;;3.95;1.48;;;5.90;99.90;;;;;;5112903;28;20027;-68
2022/01/24 08:42:37;;;;;;;3.15;1.00;;;5.90;99.90;;;;;;5113460;28;20042;-71
2022/01/24 08:47:49;;;;;;;1.60;0.88;;;5.80;99.90;;;;;;5112924;28;20078;-69
2022/01/24 08:50:20;;;;;;;3.05;0.90;;;5.90;99.90;;;;;;5113460;28;20031;-70
2022/01/24 08:52:47;;;;;;;4.95;1.17;;;5.90;99.90;;;;;;5114450;28;20110;-69
2022/01/24 08:55:13;;;;;;;7.57;0.90;;;5.90;99.90;;;;;;5112843;28;20070;-70
2022/01/24 08:57:40;;;;;;;1.70;0.88;;;6.10;99.90;;;;;;5114300;28;20156;-68
2022/01/24 09:00:07;;;;;;;2.47;1.40;;;5.90;99.90;;;;;;5113914;28;20035;-69
2022/01/24 09:02:34;;;;;;;1.88;1.10;;;5.70;99.90;;;;;;5113267;28;20488;-70
2022/01/24 09:05:01;;;;;;;4.50;1.05;;;5.90;99.90;;;;;;5112340;28;20027;-70
2022/01/24 09:07:29;;;;;;;4.00;0.88;;;6.00;99.90;;;;;;5113690;28;20016;-70
2022/01/24 09:09:55;;;;;;;2.28;1.17;;;5.90;99.90;;;;;;5114260;27;20061;-69
2022/01/24 09:12:23;;;;;;;3.25;1.27;;;5.80;99.90;;;;;;5113926;28;20028;-69
2022/01/24 09:14:50;;;;;;;7.10;1.73;;;5.80;99.90;;;;;;5113234;28;20030;-71
2022/01/24 09:17:16;;;;;;;2.92;1.38;;;5.80;99.90;;;;;;5112789;28;20023;-69
2022/01/24 09:19:42;;;;;;;3.92;1.50;;;5.90;99.90;;;;;;5114182;28;20099;-69
2022/01/24 09:22:09;;;;;;;5.18;1.50;;;5.80;99.90;;;;;;5113539;28;20058;-71
2022/01/24 09:24:35;;;;;;;2.53;1.30;;;5.90;99.90;;;;;;5116214;28;20040;-69
2022/01/24 09:27:01;;;;;;;2.55;1.38;;;6.00;99.90;;;;;;5114239;28;20384;-70
2022/01/24 09:29:27;;;;;;;2.63;1.75;;;6.00;99.90;;;;;;5118144;28;20053;-69
2022/01/24 09:31:52;;;;;;;3.03;1.30;;;6.00;99.90;;;;;;5114336;27;20035;-71
2022/01/24 09:34:20;;;;;;;6.38;1.90;;;6.00;99.90;;;;;;5112331;28;20026;-69
2022/01/24 09:36:47;;;;;;;5.57;1.75;;;6.00;99.90;;;;;;5118473;27;20019;-68
2022/01/24 09:39:17;;;;;;;5.05;1.92;;;5.90;99.90;;;;;;5126148;27;20042;-69
2022/01/24 09:41:44;;;;;;;6.78;2.20;;;6.00;99.90;;;;;;5122504;27;20053;-70
2022/01/24 09:44:10;;;;;;;3.05;1.73;;;6.00;99.90;;;;;;5130034;27;20054;-69
2022/01/24 09:46:37;;;;;;;5.68;1.70;;;6.10;99.90;;;;;;5127874;27;20437;-68
2022/01/24 09:49:04;;;;;;;1.75;1.45;;;6.30;99.90;;;;;;5127331;27;20076;-70
2022/01/24 09:51:31;;;;;;;2.28;1.80;;;6.70;99.90;;;;;;5123790;27;20069;-70
2022/01/24 09:53:58;;;;;;;12.88;4.35;;;8.30;99.90;;;;;;5128674;27;20373;-70
2022/01/24 09:56:24;;;;;;;9.23;1.40;;;8.60;99.90;;;;;;5130149;27;20034;-70
2022/01/24 09:58:49;;;;;;;3.40;1.42;;;7.00;99.90;;;;;;5123295;27;20330;-71
2022/01/24 10:01:15;;;;;;;6.28;2.08;;;6.50;99.90;;;;;;5127197;27;20138;-70
2022/01/24 10:04:20;;;;;;;3.20;1.80;;;6.40;99.90;;;;;;5118389;27;20525;-69
2022/01/24 10:07:07;;;;;;;1.63;1.48;;;6.00;99.90;;;;;;5123238;27;20043;-71
2022/01/24 10:09:33;;;;;;;3.92;1.25;;;5.90;99.90;;;;;;5116329;28;20031;-70
2022/01/24 10:12:16;;;;;;;4.40;2.13;;;6.10;99.90;;;;;;5118381;28;20080;-70
2022/01/24 10:17:32;;;;;;;2.80;1.40;;;6.20;99.90;;;;;;5124411;28;20154;-70
2022/01/24 10:20:15;;;;;;;5.07;2.00;;;6.20;99.90;;;;;;5127302;28;20024;-68
2022/01/24 10:22:40;;;;;;;4.82;2.40;;;6.30;99.90;;;;;;5115686;28;20020;-72
2022/01/24 10:25:09;;;;;;;4.28;2.13;;;6.30;99.90;;;;;;5120951;28;20051;-72
2022/01/24 10:27:34;;;;;;;5.60;2.50;;;6.50;99.90;;;;;;5118078;27;20058;-72
2022/01/24 10:30:10;;;;;;;3.00;2.28;;;6.30;99.90;;;;;;5119226;28;20430;-70
2022/01/24 10:32:41;;;;;;;7.05;3.20;;;6.30;99.90;;;;;;5126032;27;20031;-69
2022/01/24 10:35:25;;;;;;;5.83;2.40;;;6.30;99.90;;;;;;5118888;27;20122;-72
2022/01/24 10:38:13;;;;;;;5.63;2.80;;;6.20;99.90;;;;;;5125860;27;20028;-72
2022/01/24 10:43:40;;;;;;;2.92;2.63;;;6.10;99.90;;;;;;5075262;28;20025;-70
2022/01/24 10:46:07;;;;;;;6.22;2.65;;;6.30;99.90;;;;;;5111267;27;20047;-71
2022/01/24 10:48:40;;;;;;;4.88;3.05;;;6.10;99.90;;;;;;5124530;27;20057;-70
2022/01/24 10:51:26;;;;;;;4.60;2.75;;;6.10;99.90;;;;;;5123894;27;20476;-70
2022/01/24 10:53:55;;;;;;;3.05;2.75;;;6.00;99.90;;;;;;5125374;27;20043;-69
2022/01/24 10:56:30;;;;;;;4.63;2.90;;;6.00;99.90;;;;;;5123303;27;20027;-71
2022/01/24 10:59:14;;;;;;;4.30;2.90;;;6.00;99.90;;;;;;5125109;27;20023;-69
2022/01/24 11:01:42;;;;;;;4.03;2.65;;;6.10;99.90;;;;;;5130389;27;20035;-71
2022/01/24 11:04:13;;;;;;;5.30;3.08;;;6.10;99.90;;;;;;5134384;27;20023;-71
2022/01/24 11:06:42;;;;;;;5.43;3.08;;;6.10;99.90;;;;;;5123695;27;20020;-68
2022/01/24 11:09:22;;;;;;;5.03;3.22;;;6.90;99.90;;;;;;5120683;27;20027;-66
2022/01/24 11:11:49;;;;;;;3.22;2.63;;;8.00;99.90;;;;;;5121873;27;20113;-70
2022/01/24 11:14:17;;;;;;;4.55;2.90;;;8.00;99.90;;;;;;5125325;27;20483;-71
2022/01/24 11:16:44;;;;;;;3.40;3.10;;;7.00;99.90;;;;;;5121348;27;20069;-70
2022/01/24 11:19:22;;;;;;;4.63;2.47;;;7.10;99.90;;;;;;5118956;27;20039;-70
2022/01/24 11:21:51;;;;;;;8.52;3.53;;;7.00;99.90;;;;;;5118721;27;20426;-72
2022/01/24 11:24:20;;;;;;;3.47;2.90;;;6.60;99.90;;;;;;5126733;27;20027;-70
2022/01/24 11:26:46;;;;;;;11.70;5.13;;;6.50;99.90;;;;;;5123906;27;20027;-68
2022/01/24 11:29:12;;;;;;;4.00;3.00;;;6.80;99.90;;;;;;5125434;27;20513;-70
2022/01/24 11:31:49;;;;;;;6.78;3.00;;;8.30;99.90;;;;;;5131308;27;20031;-70
2022/01/24 11:34:37;;;;;;;4.07;3.13;;;7.80;99.90;;;;;;5127003;27;20146;-71
2022/01/24 11:37:04;;;;;;;2.58;2.35;;;7.20;99.90;;;;;;5114536;27;20035;-71
2022/01/24 11:39:29;;;;;;;5.93;2.65;;;6.50;99.90;;;;;;5122067;27;20026;-70
2022/01/24 11:41:56;;;;;;;5.03;2.70;;;7.20;99.90;;;;;;5118534;27;20028;-71
2022/01/24 11:44:23;;;;;;;4.80;2.55;;;7.00;99.90;;;;;;5115458;27;20083;-70
2022/01/24 11:46:52;;;;;;;2.22;2.03;;;6.60;99.90;;;;;;5119176;27;20067;-68
2022/01/24 11:49:25;;;;;;;3.20;1.65;;;6.60;99.90;;;;;;5122427;27;20062;-70
2022/01/24 11:52:14;;;;;;;2.70;1.70;;;6.40;99.90;;;;;;5122708;27;20703;-69
2022/01/24 11:54:50;;;;;;;4.22;2.38;;;6.30;99.90;;;;;;5122826;27;20044;-69
2022/01/24 11:57:33;;;;;;;9.95;2.42;;;6.30;99.90;;;;;;5124767;27;20376;-69
2022/01/24 12:00:05;;;;;;;2.30;2.10;;;6.30;99.90;;;;;;5131866;27;20043;-70
2022/01/24 12:02:41;;;;;;;;;;;6.40;99.90;;;;;;5123818;27;20507;-68
2022/01/24 12:05:14;;;;;;;2.88;2.30;;;6.40;99.90;;;;;;5121515;27;19943;-67
2022/01/24 12:07:50;;;;;;;2.20;2.00;;;6.60;99.90;;;;;;5126411;27;20445;-72
2022/01/24 12:10:35;;;;;;;2.42;2.00;;;6.60;99.90;;;;;;5151060;27;20197;-71
2022/01/24 12:13:13;;;;;;;5.07;2.25;;;6.60;99.90;;;;;;5149382;27;20027;-69
2022/01/24 12:15:39;;;;;;;3.53;1.88;;;6.80;99.90;;;;;;5135543;27;20492;-72
2022/01/24 12:18:04;;;;;;;2.15;1.88;;;6.80;99.90;;;;;;5133119;27;20059;-70
2022/01/24 12:20:30;;;;;;;2.03;1.83;;;6.50;99.90;;;;;;5134578;27;20031;-73
2022/01/24 12:23:19;;;;;;;1.73;1.63;;;6.30;99.90;;;;;;5134162;27;20027;-74
2022/01/24 12:26:01;;;;;;;2.60;1.73;;;6.30;99.90;;;;;;5131969;27;20047;-70
2022/01/24 12:28:46;;;;;;;2.20;2.00;;;6.40;99.90;;;;;;5133722;27;20039;-73
2022/01/24 12:31:20;;;;;;;2.53;2.03;;;6.50;99.90;;;;;;5132809;27;20031;-70
2022/01/24 12:34:08;;;;;;;2.25;1.90;;;6.50;99.90;;;;;;5129937;27;20063;-71
2022/01/24 12:39:09;;;;;;;2.83;1.92;;;6.40;99.90;;;;;;5122617;27;20422;-70
2022/01/24 12:41:39;;;;;;;3.08;2.20;;;6.50;99.90;;;;;;5129451;27;20042;-68
2022/01/24 12:46:32;;;;;;;2.50;2.05;;;6.80;99.90;;;;;;5129774;27;20050;-72
2022/01/24 12:49:00;;;;;;;5.78;3.05;;;6.90;99.90;;;;;;5125105;27;20473;-68
2022/01/24 12:51:33;;;;;;;6.22;1.95;;;6.70;99.90;;;;;;5127228;27;21079;-71
2022/01/24 12:54:02;;;;;;;5.32;2.20;;;6.50;99.90;;;;;;5123794;27;20054;-72
2022/01/24 12:56:32;;;;;;;2.97;1.70;;;6.50;99.90;;;;;;5123632;27;20028;-71
2022/01/24 12:58:58;;;;;;;2.80;1.85;;;6.70;99.90;;;;;;5125156;27;20026;-73
2022/01/24 13:01:32;;;;;;;2.15;1.58;;;6.70;99.90;;;;;;5130742;27;20034;-71
2022/01/24 13:04:13;;;;;;;2.35;2.00;;;6.50;99.90;;;;;;5123646;27;20028;-73
2022/01/24 13:06:43;;;;;;;2.42;1.73;;;6.60;99.90;;;;;;5127832;27;20031;-71
2022/01/24 13:09:15;;;;;;;3.97;2.20;;;6.60;99.90;;;;;;5133652;27;20043;-75
2022/01/24 13:11:48;;;;;;;;;;;6.40;99.90;;;;;;5122680;27;20027;-69
2022/01/24 13:14:25;;;;;;;1.50;1.35;;;6.70;99.90;;;;;;5131492;27;19912;-71
2022/01/24 13:25:09;;;;;;;3.63;1.92;;;6.80;99.90;;;;;;5125516;27;20065;-72
2022/01/24 13:27:59;;;;;;;4.80;2.15;;;6.60;99.90;;;;;;5130738;27;20033;-70
2022/01/24 13:30:31;;;;;;;6.60;2.00;;;6.40;99.90;;;;;;5133484;27;20038;-71
2022/01/24 13:33:09;;;;;;;6.65;2.30;;;6.70;99.90;;;;;;5133522;27;20030;-70
2022/01/24 13:35:41;;;;;;;5.90;1.98;;;6.70;99.90;;;;;;5132769;27;20023;-71
2022/01/24 13:38:19;;;;;;;3.28;1.90;;;6.70;99.90;;;;;;5126617;27;20045;-70
2022/01/24 13:41:10;;;;;;;2.17;1.60;;;6.60;99.90;;;;;;5127681;27;20480;-70
2022/01/24 13:43:45;;;;;;;4.25;3.33;;;6.70;99.90;;;;;;5113216;28;20465;-70
2022/01/24 13:46:12;;;;;;;18.65;3.63;;;6.60;99.90;;;;;;5128677;27;20045;-71
2022/01/24 13:48:41;;;;;;;2.85;1.70;;;7.30;99.90;;;;;;5114169;27;20043;-70
2022/01/24 13:51:07;;;;;;;2.92;2.10;;;6.90;99.90;;;;;;5113247;28;20034;-69
2022/01/24 13:53:37;;;;;;;3.67;2.70;;;7.10;99.90;;;;;;5113896;28;20063;-72
2022/01/24 13:56:17;;;;;;;2.35;1.90;;;7.20;99.90;;;;;;5112400;28;20028;-69
2022/01/24 13:58:55;;;;;;;2.03;1.77;;;7.20;99.90;;;;;;5120944;27;20072;-72
2022/01/24 14:01:21;;;;;;;2.33;1.70;;;7.20;99.90;;;;;;5124203;27;20058;-62
2022/01/24 14:04:02;;;;;;;3.17;1.80;;;6.70;99.90;;;;;;5130690;27;20023;-70
2022/01/24 14:06:38;;;;;;;2.35;1.73;;;6.80;99.90;;;;;;5132133;27;20028;-69
2022/01/24 14:09:12;;;;;;;2.88;1.67;;;7.00;99.90;;;;;;5122623;27;20016;-70
2022/01/24 14:11:48;;;;;;;8.10;2.85;;;6.90;99.90;;;;;;5124790;28;20103;-70
2022/01/24 14:14:19;;;;;;;3.65;1.83;;;6.70;99.90;;;;;;5123403;28;20027;-70
2022/01/24 14:17:01;;;;;;;4.90;2.35;;;6.60;99.90;;;;;;5119347;28;20123;-71
2022/01/24 14:19:37;;;;;;;3.25;2.53;;;6.60;99.90;;;;;;5122064;28;20019;-71
2022/01/24 14:22:11;;;;;;;2.58;2.38;;;6.70;99.90;;;;;;5115430;28;20039;-71
2022/01/24 14:24:49;;;;;;;3.15;2.40;;;6.80;99.90;;;;;;5124045;28;20047;-74
2022/01/24 14:27:38;;;;;;;3.63;2.17;;;6.70;99.90;;;;;;5120436;28;20122;-71
2022/01/24 14:30:31;;;;;;;5.88;3.15;;;6.80;99.90;;;;;;5118430;28;20500;-71
2022/01/24 14:33:15;;;;;;;4.93;3.22;;;6.70;99.90;;;;;;5110739;28;20517;-71
2022/01/24 14:35:58;;;;;;;5.32;2.17;;;6.70;99.90;;;;;;5129597;28;20023;-71
2022/01/24 14:38:39;;;;;;;3.13;2.22;;;6.70;99.90;;;;;;5111854;28;20028;-70
2022/01/24 14:41:10;;;;;;;3.67;2.55;;;6.80;99.90;;;;;;5111959;28;20028;-71
2022/01/24 14:46:31;;;;;;;4.00;2.80;;;6.60;99.90;;;;;;5112654;28;19919;-70
2022/01/24 14:49:01;;;;;;;5.40;2.83;;;6.50;99.90;;;;;;5113780;28;20036;-69
2022/01/24 14:51:47;;;;;;;3.03;2.50;;;6.40;99.90;;;;;;5113166;28;20032;-71
2022/01/24 14:54:20;;;;;;;6.45;3.42;;;6.50;99.90;;;;;;5127526;28;20027;-70
2022/01/24 14:56:48;;;;;;;3.72;2.80;;;6.40;99.90;;;;;;5133909;28;20034;-74
2022/01/24 14:59:15;;;;;;;3.72;3.03;;;6.50;99.90;;;;;;5133078;28;20051;-70
2022/01/24 15:01:41;;;;;;;3.75;3.08;;;6.50;99.90;;;;;;5133717;28;20479;-71